Austin, Nevada
Current Conditions -  °F | °C
As of 4:55 AM on Sunday 23 Nov 2014 (Local Time) from K05U Reporting Station
Broken Clouds Broken Clouds  
Wind Chill: 23°   Ceiling: 4200
Heat Index: 23°   Visibility: 10mi
Dew Point: 18°   Wind: 0mph
Humidity: 80%   Direction: NA
Pressure: 30.28"   Gusts: NA
Location:  39.49°N, 117.07°W
Report Text: K05U 231255Z AUTO 00000KT 10SM BKN042 M05/M08 A3028 RMK AO1
Loading
Personal Weather Stations






























Interactive Weather Map New forecast layout! Learn more

10-Day Weather Forecast

Advertisements
Track Severe Weather on mobile